createdAt,value
2018-07-28T00:01:20.280Z,19.80
2018-07-28T00:03:49.079Z,19.70
2018-07-28T00:06:17.471Z,19.80
2018-07-28T00:08:46.027Z,19.80
2018-07-28T00:11:14.733Z,20.10
2018-07-28T00:13:43.100Z,20.00
2018-07-28T00:16:11.458Z,19.90
2018-07-28T00:18:40.412Z,19.70
2018-07-28T00:21:08.806Z,19.50
2018-07-28T00:23:37.405Z,19.40
2018-07-28T00:28:39.447Z,19.70
2018-07-28T00:31:07.856Z,19.70
2018-07-28T00:33:37.485Z,19.60
2018-07-28T00:36:05.921Z,19.40
2018-07-28T00:38:34.833Z,19.40
2018-07-28T00:43:31.530Z,19.60
2018-07-28T00:45:59.925Z,19.70
2018-07-28T00:48:28.684Z,19.90
2018-07-28T00:51:05.719Z,20.00
2018-07-28T00:53:37.768Z,20.10
2018-07-28T00:56:10.620Z,20.20
2018-07-28T00:58:39.056Z,20.20
2018-07-28T01:01:07.992Z,20.30
2018-07-28T01:03:36.355Z,20.20
2018-07-28T01:06:04.850Z,20.10
2018-07-28T01:08:33.537Z,20.20
2018-07-28T01:11:02.062Z,20.30
2018-07-28T01:13:30.472Z,20.20
2018-07-28T01:15:59.255Z,20.20
2018-07-28T01:18:27.762Z,20.10
2018-07-28T01:20:56.228Z,20.10
2018-07-28T01:23:25.059Z,20.00
2018-07-28T01:25:53.471Z,19.90
2018-07-28T01:28:21.803Z,20.10
2018-07-28T01:30:50.540Z,20.10
2018-07-28T01:33:18.917Z,20.10
2018-07-28T01:35:47.275Z,20.00
2018-07-28T01:38:15.914Z,19.80
2018-07-28T01:40:46.730Z,19.70
2018-07-28T01:43:15.340Z,19.80
2018-07-28T01:45:44.032Z,19.70
2018-07-28T01:48:12.419Z,19.70
2018-07-28T01:50:41.162Z,19.60
2018-07-28T01:53:09.904Z,19.60
2018-07-28T01:55:38.275Z,19.70
2018-07-28T01:58:06.604Z,19.70
2018-07-28T02:00:35.862Z,19.60
2018-07-28T02:03:04.783Z,19.60
2018-07-28T02:05:33.312Z,19.80
2018-07-28T02:08:02.247Z,19.80
2018-07-28T02:10:30.795Z,19.80
2018-07-28T02:12:59.264Z,19.90
2018-07-28T02:15:28.052Z,19.80
2018-07-28T02:17:56.610Z,19.90
2018-07-28T02:20:25.412Z,19.80
2018-07-28T02:22:54.271Z,19.90
2018-07-28T02:25:23.082Z,19.80
2018-07-28T02:27:51.892Z,19.90
2018-07-28T02:30:20.545Z,19.90
2018-07-28T02:32:49.138Z,19.80
2018-07-28T02:35:17.493Z,19.70
2018-07-28T02:37:46.220Z,19.40
2018-07-28T02:40:14.697Z,19.30
2018-07-28T02:42:43.199Z,19.40
2018-07-28T02:45:11.956Z,19.40
2018-07-28T02:47:40.313Z,19.30
2018-07-28T02:50:08.648Z,19.20
2018-07-28T02:52:37.415Z,19.30
2018-07-28T02:55:06.421Z,19.20
2018-07-28T02:57:34.766Z,19.30
2018-07-28T03:00:03.973Z,19.40
2018-07-28T03:02:33.091Z,19.50
2018-07-28T03:05:01.372Z,19.40
2018-07-28T03:07:29.982Z,19.50
2018-07-28T03:09:58.211Z,19.50
2018-07-28T03:12:26.775Z,19.50
2018-07-28T03:14:55.419Z,19.30
2018-07-28T03:17:23.687Z,19.20
2018-07-28T03:20:06.647Z,19.20
2018-07-28T03:22:36.396Z,19.20
2018-07-28T03:25:05.095Z,19.10
2018-07-28T03:27:34.640Z,19.10
2018-07-28T03:30:02.895Z,19.10
2018-07-28T03:32:31.127Z,19.20
2018-07-28T03:34:59.774Z,19.30
2018-07-28T03:37:28.030Z,19.40
2018-07-28T03:39:56.306Z,19.30
2018-07-28T03:42:27.724Z,19.30
2018-07-28T03:44:59.180Z,19.30
2018-07-28T03:47:37.377Z,19.30
2018-07-28T03:50:05.969Z,19.20
2018-07-28T03:52:34.311Z,19.20
2018-07-28T03:55:04.079Z,19.20
2018-07-28T03:57:33.188Z,19.30
2018-07-28T04:00:02.036Z,19.40
2018-07-28T04:02:32.413Z,19.50
2018-07-28T04:05:01.046Z,19.60
2018-07-28T04:07:29.307Z,19.60
2018-07-28T04:09:57.997Z,19.60
2018-07-28T04:12:26.239Z,19.60
2018-07-28T04:17:23.535Z,19.50
2018-07-28T04:19:51.794Z,19.40
2018-07-28T04:22:20.145Z,19.60
2018-07-28T04:24:48.761Z,19.60
2018-07-28T04:27:17.056Z,19.60
2018-07-28T04:29:45.316Z,19.60
2018-07-28T04:32:13.929Z,19.50
2018-07-28T04:34:42.245Z,19.60
2018-07-28T04:37:11.792Z,19.70
2018-07-28T04:39:40.631Z,19.90
2018-07-28T04:42:09.276Z,19.80
2018-07-28T04:44:37.552Z,19.70
2018-07-28T04:47:06.219Z,19.90
2018-07-28T04:49:34.551Z,19.90
2018-07-28T04:52:03.013Z,20.00
2018-07-28T04:54:31.956Z,20.00
2018-07-28T04:57:00.201Z,20.10
2018-07-28T04:59:46.356Z,20.10
2018-07-28T05:02:14.979Z,20.10
2018-07-28T05:04:45.308Z,20.20
2018-07-28T05:07:14.319Z,20.40
2018-07-28T05:09:42.873Z,20.80
2018-07-28T05:12:11.184Z,21.80
2018-07-28T05:14:39.442Z,22.80
2018-07-28T05:17:08.124Z,22.90
2018-07-28T05:19:36.343Z,22.40
2018-07-28T05:22:04.771Z,22.20
2018-07-28T05:24:33.358Z,21.80
2018-07-28T05:27:02.325Z,21.60
2018-07-28T05:29:30.685Z,21.40
2018-07-28T05:31:59.384Z,21.50
2018-07-28T05:34:27.728Z,21.50
2018-07-28T05:36:55.995Z,21.30
2018-07-28T05:39:25.069Z,21.30
2018-07-28T05:41:53.424Z,21.30
2018-07-28T05:44:22.003Z,21.50
2018-07-28T05:46:50.319Z,21.90
2018-07-28T05:49:18.599Z,22.10
2018-07-28T05:54:30.520Z,22.10
2018-07-28T05:56:59.258Z,22.00
2018-07-28T05:59:27.536Z,21.90
2018-07-28T06:01:55.802Z,22.00
2018-07-28T06:04:25.026Z,22.00
2018-07-28T06:06:53.272Z,21.90
2018-07-28T06:09:21.505Z,21.90
2018-07-28T06:14:17.994Z,22.10
2018-07-28T06:16:48.439Z,22.20
2018-07-28T06:19:17.208Z,22.20
2018-07-28T06:21:45.470Z,22.30
2018-07-28T06:24:13.719Z,22.50
2018-07-28T06:26:42.432Z,22.90
2018-07-28T06:29:10.694Z,23.70
2018-07-28T06:31:39.007Z,24.60
2018-07-28T06:34:07.604Z,25.30
2018-07-28T06:36:37.701Z,25.50
2018-07-28T06:39:08.110Z,26.50
2018-07-28T06:41:36.711Z,27.40
2018-07-28T06:44:05.019Z,29.40
2018-07-28T06:46:33.271Z,29.50
2018-07-28T06:49:02.013Z,31.60
2018-07-28T06:51:30.881Z,32.20
2018-07-28T06:53:59.516Z,32.90
2018-07-28T06:56:28.202Z,33.00
2018-07-28T06:58:56.453Z,33.60
2018-07-28T07:03:53.816Z,32.30
2018-07-28T07:06:22.088Z,32.70
2018-07-28T07:13:46.471Z,34.30
2018-07-28T07:16:15.212Z,34.50
2018-07-28T07:18:44.458Z,36.50
2018-07-28T07:21:12.771Z,36.30
2018-07-28T07:26:09.994Z,36.80
2018-07-28T07:28:38.272Z,37.20
2018-07-28T07:31:06.544Z,36.00
2018-07-28T07:33:35.235Z,36.30
2018-07-28T07:36:03.520Z,36.80
2018-07-28T07:38:31.839Z,36.80
2018-07-28T07:41:21.388Z,36.10
2018-07-28T07:44:12.507Z,35.70
2018-07-28T07:46:42.144Z,35.70
2018-07-28T07:49:10.393Z,35.90
2018-07-28T07:51:38.687Z,35.30
2018-07-28T07:54:07.855Z,35.80
2018-07-28T07:56:36.266Z,36.90
2018-07-28T07:59:04.766Z,36.70
2018-07-28T08:01:33.447Z,37.10
2018-07-28T08:04:01.679Z,37.60
2018-07-28T08:06:30.093Z,38.10
2018-07-28T08:08:59.440Z,37.30
2018-07-28T08:11:28.316Z,36.60
2018-07-28T08:16:31.563Z,37.20
2018-07-28T08:19:05.226Z,37.70
2018-07-28T08:21:35.440Z,39.20
2018-07-28T08:24:04.531Z,40.30
2018-07-28T08:26:32.803Z,41.00
2018-07-28T08:29:01.350Z,38.20
2018-07-28T08:31:35.142Z,35.60
2018-07-28T08:34:05.802Z,37.30
2018-07-28T08:40:00.900Z,38.70
2018-07-28T08:42:31.059Z,39.80
2018-07-28T08:44:59.502Z,40.00
2018-07-28T08:47:28.647Z,38.60
2018-07-28T08:49:57.348Z,39.00
2018-07-28T08:52:43.197Z,37.10
2018-07-28T08:55:15.254Z,35.90
2018-07-28T08:57:43.513Z,34.20
2018-07-28T09:00:16.227Z,34.00
2018-07-28T09:02:44.900Z,32.70
2018-07-28T09:05:13.210Z,32.40
2018-07-28T09:07:44.277Z,33.30
2018-07-28T09:10:13.781Z,33.40
2018-07-28T09:12:42.039Z,31.80
2018-07-28T09:15:11.125Z,33.20
2018-07-28T09:17:40.583Z,34.60
2018-07-28T09:20:08.950Z,35.60
2018-07-28T09:22:59.823Z,37.80
2018-07-28T09:25:37.664Z,38.40
2018-07-28T09:30:37.717Z,34.90
2018-07-28T09:33:07.674Z,35.80
2018-07-28T09:35:37.914Z,34.80
2018-07-28T09:38:44.813Z,34.10
2018-07-28T09:41:16.119Z,35.10
2018-07-28T09:44:24.790Z,35.50
2018-07-28T09:47:05.571Z,36.50
2018-07-28T09:49:37.852Z,37.00
2018-07-28T09:59:57.218Z,34.90
2018-07-28T10:02:45.482Z,33.70
2018-07-28T10:05:16.289Z,33.50
2018-07-28T10:08:01.674Z,31.70
2018-07-28T10:10:51.601Z,31.40
2018-07-28T10:13:21.473Z,32.00
2018-07-28T10:15:51.604Z,31.60
2018-07-28T10:18:21.000Z,31.10
2018-07-28T10:20:50.865Z,31.10
2018-07-28T10:23:23.036Z,31.60
2018-07-28T10:25:53.678Z,31.10
2018-07-28T10:28:43.682Z,30.50
2018-07-28T10:31:14.097Z,30.70
2018-07-28T10:33:43.583Z,30.40
2018-07-28T10:36:12.673Z,30.40
2018-07-28T10:38:41.846Z,30.70
2018-07-28T10:41:11.386Z,30.30
2018-07-28T10:43:40.497Z,30.70
2018-07-28T10:46:09.710Z,30.90
2018-07-28T10:48:39.101Z,30.80
2018-07-28T10:51:08.292Z,31.00
2018-07-28T10:53:37.545Z,31.90
2018-07-28T10:58:35.957Z,31.60
2018-07-28T11:01:06.156Z,30.70
2018-07-28T11:03:36.748Z,29.90
2018-07-28T11:06:06.320Z,29.40
2018-07-28T11:08:37.448Z,30.20
2018-07-28T11:11:08.315Z,29.70
2018-07-28T11:13:42.581Z,30.30
2018-07-28T11:16:15.246Z,31.40
2018-07-28T11:18:44.837Z,31.20
2018-07-28T11:21:16.177Z,31.80
2018-07-28T11:23:55.072Z,31.40
2018-07-28T11:26:25.930Z,32.50
2018-07-28T11:29:01.993Z,32.30
2018-07-28T11:31:45.955Z,31.50
2018-07-28T11:34:27.062Z,32.40
2018-07-28T11:37:11.417Z,32.40
2018-07-28T11:42:26.508Z,32.00
2018-07-28T11:45:04.067Z,31.90
2018-07-28T11:47:37.461Z,31.00
2018-07-28T11:50:09.973Z,30.90
2018-07-28T11:52:40.072Z,31.50
2018-07-28T11:55:09.239Z,30.90
2018-07-28T11:57:38.872Z,30.90
2018-07-28T12:00:10.950Z,31.00
2018-07-28T12:02:40.291Z,30.90
2018-07-28T12:05:10.255Z,30.90
2018-07-28T12:07:39.436Z,31.10
2018-07-28T12:10:09.100Z,31.60
2018-07-28T12:12:40.385Z,32.00
2018-07-28T12:15:09.438Z,31.30
2018-07-28T12:17:38.740Z,30.70
2018-07-28T12:20:08.276Z,31.00
2018-07-28T12:22:37.395Z,31.30
2018-07-28T12:25:06.520Z,31.20
2018-07-28T12:27:36.160Z,31.40
2018-07-28T12:30:07.405Z,31.60
2018-07-28T12:32:37.590Z,31.90
2018-07-28T12:35:09.797Z,31.90
2018-07-28T12:40:16.118Z,32.60
2018-07-28T12:42:46.426Z,32.30
2018-07-28T12:45:16.092Z,32.00
2018-07-28T12:47:46.866Z,31.60
2018-07-28T12:50:20.589Z,31.00
2018-07-28T12:52:50.040Z,31.40
2018-07-28T12:57:50.244Z,31.80
2018-07-28T13:00:19.916Z,31.80
2018-07-28T13:02:49.246Z,31.60
2018-07-28T13:05:18.368Z,31.70
2018-07-28T13:10:16.760Z,32.50
2018-07-28T13:12:45.896Z,32.60
2018-07-28T13:15:15.367Z,31.90
2018-07-28T13:20:14.146Z,31.90
2018-07-28T13:22:53.465Z,31.20
2018-07-28T13:25:24.309Z,30.70
2018-07-28T13:27:54.632Z,30.50
2018-07-28T13:30:24.698Z,30.60
2018-07-28T13:35:23.999Z,29.90
2018-07-28T13:37:53.172Z,29.80
2018-07-28T13:40:22.320Z,29.60
2018-07-28T13:42:51.530Z,29.70
2018-07-28T13:45:22.808Z,29.60
2018-07-28T13:47:52.086Z,30.00
2018-07-28T13:50:22.401Z,30.10
2018-07-28T13:52:52.812Z,30.30
2018-07-28T13:55:24.465Z,30.80
2018-07-28T13:57:54.401Z,31.00
2018-07-28T14:00:25.220Z,31.30
2018-07-28T14:02:54.932Z,31.00
2018-07-28T14:05:24.703Z,30.90
2018-07-28T14:07:54.030Z,30.80
2018-07-28T14:10:24.210Z,30.20
2018-07-28T14:15:30.643Z,29.60
2018-07-28T14:20:29.546Z,28.80
2018-07-28T14:22:58.705Z,28.70
2018-07-28T14:25:29.409Z,28.80
2018-07-28T14:27:58.869Z,29.30
2018-07-28T14:30:28.598Z,30.00
2018-07-28T14:32:58.235Z,29.70
2018-07-28T14:35:27.510Z,29.70
2018-07-28T14:38:44.525Z,29.40
2018-07-28T14:41:13.827Z,29.40
2018-07-28T14:43:45.519Z,29.20
2018-07-28T14:46:14.689Z,29.30
2018-07-28T14:48:44.321Z,29.70
2018-07-28T14:51:13.808Z,29.80
2018-07-28T14:53:42.900Z,30.10
2018-07-28T14:56:12.071Z,30.30
2018-07-28T14:58:41.535Z,30.20
2018-07-28T15:01:10.912Z,29.90
2018-07-28T15:03:42.323Z,30.20
2018-07-28T15:06:12.282Z,30.30
2018-07-28T15:08:44.789Z,30.60
2018-07-28T15:11:14.298Z,30.80
2018-07-28T15:13:43.674Z,30.70
2018-07-28T17:13:40.551Z,30.80
2018-07-28T17:16:11.563Z,28.60
2018-07-28T17:21:20.069Z,28.60
2018-07-28T17:24:04.296Z,28.60
2018-07-28T17:26:33.685Z,28.30
2018-07-28T17:29:04.664Z,28.30
2018-07-28T17:31:33.842Z,28.20
2018-07-28T17:37:09.178Z,27.80
2018-07-28T17:39:37.400Z,27.50
2018-07-28T17:42:05.820Z,27.40
2018-07-28T17:44:34.335Z,27.40
2018-07-28T17:47:02.764Z,27.60
2018-07-28T17:52:05.662Z,27.50
2018-07-28T17:54:36.739Z,27.50
2018-07-28T17:57:19.618Z,27.50
2018-07-28T17:59:48.665Z,27.30
2018-07-28T18:05:38.334Z,26.80
2018-07-28T18:08:14.705Z,26.80
2018-07-28T18:11:09.021Z,26.70
2018-07-28T18:13:45.747Z,26.40
2018-07-28T18:16:17.536Z,26.40
2018-07-28T18:18:48.107Z,26.40
2018-07-28T18:21:17.257Z,26.30
2018-07-28T18:23:49.058Z,26.20
2018-07-28T18:26:18.112Z,26.10
2018-07-28T18:31:16.331Z,25.90
2018-07-28T18:36:42.312Z,26.00
2018-07-28T18:39:44.508Z,26.10
2018-07-28T18:42:29.124Z,26.10
2018-07-28T18:44:57.682Z,25.80
2018-07-28T18:47:26.277Z,25.70
2018-07-28T18:49:54.959Z,25.60
2018-07-28T18:52:24.280Z,25.50
2018-07-28T18:54:52.964Z,25.40
2018-07-28T18:57:21.494Z,25.30
2018-07-28T19:09:30.127Z,25.20
2018-07-28T19:12:06.956Z,25.40
2018-07-28T19:14:49.338Z,25.20
2018-07-28T19:17:32.599Z,25.30
2018-07-28T19:20:17.265Z,25.10
2018-07-28T19:22:51.238Z,25.10
2018-07-28T19:25:26.521Z,25.20
2018-07-28T19:28:06.191Z,25.40
2018-07-28T19:33:10.509Z,25.30
2018-07-28T19:35:44.613Z,25.20
2018-07-28T19:38:18.264Z,25.30
2018-07-28T19:40:47.596Z,25.30
2018-07-28T19:43:16.237Z,25.30
2018-07-28T19:45:44.819Z,25.30
2018-07-28T19:48:13.289Z,25.20
2018-07-28T19:50:41.722Z,25.20
2018-07-28T19:55:39.212Z,25.20
2018-07-28T19:58:07.541Z,25.30
2018-07-28T20:00:37.217Z,25.40
2018-07-28T20:03:06.919Z,25.30
2018-07-28T20:05:35.409Z,25.20
2018-07-28T20:08:04.676Z,25.30
2018-07-28T20:10:35.812Z,25.30
2018-07-28T20:13:05.407Z,25.40
2018-07-28T20:15:34.987Z,25.40
2018-07-28T20:18:05.997Z,25.40
2018-07-28T20:20:34.356Z,25.50
2018-07-28T20:23:02.897Z,25.50
2018-07-28T20:25:31.136Z,25.40
2018-07-28T20:27:59.420Z,25.50
2018-07-28T20:30:43.835Z,25.40
2018-07-28T20:33:13.389Z,25.30
2018-07-28T20:35:43.254Z,25.40
2018-07-28T20:38:12.616Z,25.30
2018-07-28T20:40:40.947Z,25.20
2018-07-28T20:43:12.759Z,25.30
2018-07-28T20:45:43.465Z,25.20
2018-07-28T20:48:11.864Z,25.30
2018-07-28T20:50:41.384Z,24.90
2018-07-28T20:53:09.622Z,24.90
2018-07-28T20:55:39.346Z,24.70
2018-07-28T20:58:09.026Z,24.80
2018-07-28T21:00:37.473Z,24.80
2018-07-28T21:03:06.203Z,24.80
2018-07-28T21:05:35.608Z,24.70
2018-07-28T21:08:03.925Z,24.30
2018-07-28T21:10:32.240Z,24.10
2018-07-28T21:13:01.530Z,23.90
2018-07-28T21:15:31.472Z,23.80
2018-07-28T21:18:05.236Z,23.60
2018-07-28T21:20:37.549Z,23.70
2018-07-28T21:23:06.051Z,23.50
2018-07-28T21:25:35.805Z,23.70
2018-07-28T21:30:32.615Z,24.00
2018-07-28T21:33:07.555Z,24.20
2018-07-28T21:35:36.959Z,24.20
2018-07-28T21:38:07.037Z,24.30
2018-07-28T21:40:35.421Z,24.40
2018-07-28T21:43:07.984Z,24.30
2018-07-28T21:45:37.043Z,24.30
2018-07-28T21:48:05.328Z,24.40
2018-07-28T21:50:34.075Z,24.30
2018-07-28T21:53:02.908Z,24.20
2018-07-28T21:55:31.235Z,23.90
2018-07-28T21:58:01.027Z,23.90
2018-07-28T22:00:34.314Z,23.70
2018-07-28T22:03:03.480Z,23.70
2018-07-28T22:11:23.233Z,23.60
2018-07-28T22:13:51.565Z,23.50
2018-07-28T22:16:20.175Z,23.40
2018-07-28T22:18:48.721Z,23.20
2018-07-28T22:21:17.791Z,23.20
2018-07-28T22:23:46.541Z,23.30
2018-07-28T22:26:14.889Z,23.30
2018-07-28T22:28:43.152Z,23.40
2018-07-28T22:31:11.763Z,23.20
2018-07-28T22:33:40.075Z,23.30
2018-07-28T22:36:08.337Z,23.20
2018-07-28T22:38:38.066Z,23.30
2018-07-28T22:41:07.883Z,23.30
2018-07-28T22:43:36.192Z,23.20
2018-07-28T22:46:04.858Z,23.30
2018-07-28T22:48:33.139Z,23.20
2018-07-28T22:51:01.470Z,23.30
2018-07-28T22:53:30.209Z,23.00
2018-07-28T22:55:58.411Z,23.10
2018-07-28T22:58:26.670Z,23.10
2018-07-28T23:00:56.039Z,23.20
2018-07-28T23:03:24.263Z,23.20
2018-07-28T23:05:52.880Z,23.20
2018-07-28T23:08:21.692Z,23.20
2018-07-28T23:10:49.965Z,23.10
2018-07-28T23:13:18.259Z,23.10
2018-07-28T23:15:46.838Z,23.00
2018-07-28T23:18:15.473Z,22.80
2018-07-28T23:20:43.734Z,22.80
2018-07-28T23:23:12.370Z,22.70
2018-07-28T23:25:40.679Z,22.80
2018-07-28T23:28:08.973Z,22.70
2018-07-28T23:30:37.569Z,22.70
2018-07-28T23:33:06.128Z,22.60
2018-07-28T23:35:34.488Z,22.50
2018-07-28T23:38:03.053Z,22.60
2018-07-28T23:40:31.316Z,22.60
2018-07-28T23:42:59.571Z,22.60
2018-07-28T23:45:28.280Z,22.60
2018-07-28T23:47:56.511Z,22.50
2018-07-28T23:50:25.252Z,22.50
2018-07-28T23:52:53.934Z,22.60
2018-07-28T23:55:22.227Z,22.60
2018-07-28T23:57:50.745Z,22.30
